sensor_id;sensor_type;location;lat;lon;timestamp;pressure;altitude;pressure_sealevel;temperature;humidity
36242;BME280;22283;42.748;12.732;2023-05-02T00:01:32;97291.00;;;12.99;100.00
36242;BME280;22283;42.748;12.732;2023-05-02T00:06:33;97283.34;;;12.86;100.00
36242;BME280;22283;42.748;12.732;2023-05-02T00:11:34;97281.44;;;12.78;100.00
36242;BME280;22283;42.748;12.732;2023-05-02T00:16:35;97271.31;;;12.64;100.00
36242;BME280;22283;42.748;12.732;2023-05-02T00:21:37;97269.53;;;12.55;100.00
36242;BME280;22283;42.748;12.732;2023-05-02T00:26:38;97263.88;;;12.40;100.00
36242;BME280;22283;42.748;12.732;2023-05-02T00:31:41;97263.31;;;12.27;100.00
36242;BME280;22283;42.748;12.732;2023-05-02T00:36:41;97260.72;;;12.17;100.00
36242;BME280;22283;42.748;12.732;2023-05-02T00:41:42;97254.03;;;12.03;100.00
36242;BME280;22283;42.748;12.732;2023-05-02T00:46:43;97254.06;;;11.94;100.00
36242;BME280;22283;42.748;12.732;2023-05-02T00:51:43;97251.00;;;11.89;100.00
36242;BME280;22283;42.748;12.732;2023-05-02T00:56:44;97236.78;;;11.90;100.00
36242;BME280;22283;42.748;12.732;2023-05-02T01:18:00;97243.75;;;11.62;100.00
36242;BME280;22283;42.748;12.732;2023-05-02T01:23:08;97234.53;;;11.56;100.00
36242;BME280;22283;42.748;12.732;2023-05-02T01:33:30;97232.03;;;11.54;100.00
36242;BME280;22283;42.748;12.732;2023-05-02T01:38:33;97230.66;;;11.60;100.00
36242;BME280;22283;42.748;12.732;2023-05-02T01:43:36;97226.19;;;11.61;100.00
36242;BME280;22283;42.748;12.732;2023-05-02T01:48:37;97218.94;;;11.53;100.00
36242;BME280;22283;42.748;12.732;2023-05-02T01:53:41;97218.94;;;11.53;100.00
36242;BME280;22283;42.748;12.732;2023-05-02T01:58:43;97216.69;;;11.58;100.00
36242;BME280;22283;42.748;12.732;2023-05-02T02:03:45;97213.34;;;11.56;100.00
36242;BME280;22283;42.748;12.732;2023-05-02T02:08:47;97206.38;;;11.55;100.00
36242;BME280;22283;42.748;12.732;2023-05-02T02:13:48;97209.16;;;11.63;100.00
36242;BME280;22283;42.748;12.732;2023-05-02T02:18:53;97206.38;;;11.65;100.00
36242;BME280;22283;42.748;12.732;2023-05-02T02:23:56;97194.50;;;11.59;100.00
36242;BME280;22283;42.748;12.732;2023-05-02T02:28:59;97196.63;;;11.46;100.00
36242;BME280;22283;42.748;12.732;2023-05-02T02:34:01;97193.81;;;11.47;100.00
36242;BME280;22283;42.748;12.732;2023-05-02T02:55:04;97200.25;;;11.35;100.00
36242;BME280;22283;42.748;12.732;2023-05-02T03:00:15;97220.59;;;11.35;100.00
36242;BME280;22283;42.748;12.732;2023-05-02T03:05:18;97208.63;;;11.30;100.00
36242;BME280;22283;42.748;12.732;2023-05-02T03:10:49;97217.81;;;11.26;100.00
36242;BME280;22283;42.748;12.732;2023-05-02T03:20:56;97208.88;;;11.47;100.00
36242;BME280;22283;42.748;12.732;2023-05-02T03:25:58;97209.72;;;11.47;100.00
36242;BME280;22283;42.748;12.732;2023-05-02T03:30:59;97210.56;;;11.48;100.00
36242;BME280;22283;42.748;12.732;2023-05-02T03:36:03;97211.94;;;11.52;100.00
36242;BME280;22283;42.748;12.732;2023-05-02T03:41:04;97208.91;;;11.56;100.00
36242;BME280;22283;42.748;12.732;2023-05-02T03:46:07;97212.78;;;11.62;100.00
36242;BME280;22283;42.748;12.732;2023-05-02T03:51:12;97211.69;;;11.65;100.00
36242;BME280;22283;42.748;12.732;2023-05-02T03:56:17;97216.41;;;11.71;100.00
36242;BME280;22283;42.748;12.732;2023-05-02T04:01:29;97207.75;;;11.59;100.00
36242;BME280;22283;42.748;12.732;2023-05-02T04:06:32;97211.69;;;11.65;100.00
36242;BME280;22283;42.748;12.732;2023-05-02T04:11:37;97223.38;;;11.62;100.00
36242;BME280;22283;42.748;12.732;2023-05-02T04:16:39;97223.53;;;11.61;100.00
36242;BME280;22283;42.748;12.732;2023-05-02T04:21:41;97223.94;;;11.56;100.00
36242;BME280;22283;42.748;12.732;2023-05-02T04:26:42;97225.47;;;11.68;100.00
36242;BME280;22283;42.748;12.732;2023-05-02T04:31:46;97229.22;;;11.75;100.00
36242;BME280;22283;42.748;12.732;2023-05-02T04:36:48;97240.94;;;11.82;100.00
36242;BME280;22283;42.748;12.732;2023-05-02T04:41:54;97246.66;;;11.88;100.00
36242;BME280;22283;42.748;12.732;2023-05-02T04:46:57;97255.72;;;11.95;100.00
36242;BME280;22283;42.748;12.732;2023-05-02T04:51:58;97253.06;;;11.95;100.00
36242;BME280;22283;42.748;12.732;2023-05-02T04:56:59;97259.63;;;12.00;100.00
36242;BME280;22283;42.748;12.732;2023-05-02T05:02:03;97247.34;;;12.09;100.00
36242;BME280;22283;42.748;12.732;2023-05-02T05:07:04;97265.03;;;12.18;100.00
36242;BME280;22283;42.748;12.732;2023-05-02T05:12:05;97270.72;;;12.23;100.00
36242;BME280;22283;42.748;12.732;2023-05-02T05:17:09;97255.13;;;12.20;100.00
36242;BME280;22283;42.748;12.732;2023-05-02T05:22:10;97268.63;;;12.37;100.00
36242;BME280;22283;42.748;12.732;2023-05-02T05:27:11;97273.59;;;12.49;100.00
36242;BME280;22283;42.748;12.732;2023-05-02T05:32:12;97278.28;;;12.65;100.00
36242;BME280;22283;42.748;12.732;2023-05-02T05:37:13;97286.06;;;12.76;100.00
36242;BME280;22283;42.748;12.732;2023-05-02T05:42:15;97283.69;;;12.83;100.00
36242;BME280;22283;42.748;12.732;2023-05-02T05:47:19;97292.75;;;13.08;100.00
36242;BME280;22283;42.748;12.732;2023-05-02T05:52:22;97299.38;;;13.32;100.00
36242;BME280;22283;42.748;12.732;2023-05-02T05:57:24;97306.22;;;13.52;100.00
36242;BME280;22283;42.748;12.732;2023-05-02T06:02:25;97294.09;;;13.67;100.00
36242;BME280;22283;42.748;12.732;2023-05-02T06:07:26;97316.09;;;13.95;100.00
36242;BME280;22283;42.748;12.732;2023-05-02T06:12:26;97300.81;;;13.97;100.00
36242;BME280;22283;42.748;12.732;2023-05-02T06:17:27;97321.19;;;14.33;100.00
36242;BME280;22283;42.748;12.732;2023-05-02T06:22:27;97315.16;;;14.48;100.00
36242;BME280;22283;42.748;12.732;2023-05-02T06:27:28;97327.28;;;14.69;100.00
36242;BME280;22283;42.748;12.732;2023-05-02T06:32:30;97333.44;;;14.95;100.00
36242;BME280;22283;42.748;12.732;2023-05-02T06:37:34;97320.94;;;14.96;98.43
36242;BME280;22283;42.748;12.732;2023-05-02T06:42:35;97321.75;;;15.31;96.33
36242;BME280;22283;42.748;12.732;2023-05-02T06:47:35;97339.34;;;15.58;93.77
36242;BME280;22283;42.748;12.732;2023-05-02T06:52:36;97328.41;;;15.77;90.54
36242;BME280;22283;42.748;12.732;2023-05-02T06:57:37;97325.75;;;15.93;89.19
36242;BME280;22283;42.748;12.732;2023-05-02T07:02:37;97323.28;;;15.92;87.89
36242;BME280;22283;42.748;12.732;2023-05-02T07:07:38;97339.63;;;16.13;88.91
36242;BME280;22283;42.748;12.732;2023-05-02T07:12:39;97341.44;;;16.54;88.01
36242;BME280;22283;42.748;12.732;2023-05-02T07:17:39;97334.59;;;16.76;84.98
36242;BME280;22283;42.748;12.732;2023-05-02T07:22:40;97330.91;;;16.77;83.71
36242;BME280;22283;42.748;12.732;2023-05-02T07:27:41;97342.19;;;17.03;85.55
36242;BME280;22283;42.748;12.732;2023-05-02T07:32:41;97334.84;;;17.44;82.11
36242;BME280;22283;42.748;12.732;2023-05-02T07:37:42;97345.34;;;17.54;80.47
36242;BME280;22283;42.748;12.732;2023-05-02T07:42:43;97342.72;;;17.69;76.24
36242;BME280;22283;42.748;12.732;2023-05-02T07:47:44;97328.66;;;18.06;76.10
36242;BME280;22283;42.748;12.732;2023-05-02T07:52:45;97350.28;;;18.42;74.11
36242;BME280;22283;42.748;12.732;2023-05-02T07:57:46;97348.94;;;18.61;70.52
36242;BME280;22283;42.748;12.732;2023-05-02T08:02:47;97359.53;;;18.78;70.62
36242;BME280;22283;42.748;12.732;2023-05-02T08:07:47;97357.41;;;19.03;68.85
36242;BME280;22283;42.748;12.732;2023-05-02T08:12:48;97353.53;;;19.64;63.30
36242;BME280;22283;42.748;12.732;2023-05-02T08:17:48;97353.91;;;19.61;64.99
36242;BME280;22283;42.748;12.732;2023-05-02T08:22:49;97365.53;;;19.39;62.56
36242;BME280;22283;42.748;12.732;2023-05-02T08:27:50;97360.53;;;19.51;65.36
36242;BME280;22283;42.748;12.732;2023-05-02T08:32:51;97368.00;;;19.85;62.34
36242;BME280;22283;42.748;12.732;2023-05-02T08:37:51;97358.56;;;19.59;63.86
36242;BME280;22283;42.748;12.732;2023-05-02T08:42:53;97380.53;;;19.99;61.83
36242;BME280;22283;42.748;12.732;2023-05-02T08:47:54;97374.41;;;19.69;62.17
36242;BME280;22283;42.748;12.732;2023-05-02T08:52:56;97374.66;;;19.59;63.21
36242;BME280;22283;42.748;12.732;2023-05-02T08:57:58;97372.38;;;19.56;64.97
36242;BME280;22283;42.748;12.732;2023-05-02T09:03:03;97383.03;;;19.35;65.61
36242;BME280;22283;42.748;12.732;2023-05-02T09:08:05;97378.03;;;19.61;64.83
36242;BME280;22283;42.748;12.732;2023-05-02T09:13:39;97384.94;;;19.85;64.54
36242;BME280;22283;42.748;12.732;2023-05-02T09:18:45;97386.34;;;19.67;63.30
36242;BME280;22283;42.748;12.732;2023-05-02T09:23:50;97393.19;;;19.54;64.88
36242;BME280;22283;42.748;12.732;2023-05-02T09:28:54;97389.22;;;19.65;65.07
36242;BME280;22283;42.748;12.732;2023-05-02T09:33:55;97399.47;;;19.32;62.85
36242;BME280;22283;42.748;12.732;2023-05-02T09:38:56;97400.34;;;19.62;62.81
36242;BME280;22283;42.748;12.732;2023-05-02T09:44:09;97393.63;;;20.24;60.07
36242;BME280;22283;42.748;12.732;2023-05-02T09:49:10;97386.56;;;20.23;59.09
36242;BME280;22283;42.748;12.732;2023-05-02T09:54:12;97406.94;;;20.53;59.54
36242;BME280;22283;42.748;12.732;2023-05-02T09:59:14;97393.22;;;21.26;56.97
36242;BME280;22283;42.748;12.732;2023-05-02T10:04:15;97402.16;;;21.26;56.08
36242;BME280;22283;42.748;12.732;2023-05-02T10:09:18;97392.19;;;20.71;56.25
36242;BME280;22283;42.748;12.732;2023-05-02T10:14:20;97391.28;;;20.85;56.22
36242;BME280;22283;42.748;12.732;2023-05-02T10:20:02;97386.09;;;21.11;54.67
36242;BME280;22283;42.748;12.732;2023-05-02T10:25:04;97391.19;;;21.28;54.00
36242;BME280;22283;42.748;12.732;2023-05-02T10:30:04;97380.03;;;21.31;54.16
36242;BME280;22283;42.748;12.732;2023-05-02T10:35:06;97369.41;;;21.57;52.81
36242;BME280;22283;42.748;12.732;2023-05-02T10:40:10;97383.63;;;21.86;52.78
36242;BME280;22283;42.748;12.732;2023-05-02T10:50:42;97373.50;;;21.47;53.25
36242;BME280;22283;42.748;12.732;2023-05-02T10:55:44;97377.97;;;21.33;53.25
36242;BME280;22283;42.748;12.732;2023-05-02T11:00:45;97378.50;;;21.22;54.24
36242;BME280;22283;42.748;12.732;2023-05-02T11:06:03;97380.66;;;21.33;55.22
36242;BME280;22283;42.748;12.732;2023-05-02T11:11:42;97378.06;;;21.46;54.46
36242;BME280;22283;42.748;12.732;2023-05-02T11:37:58;97369.53;;;21.97;53.56
36242;BME280;22283;42.748;12.732;2023-05-02T11:42:59;97381.91;;;21.72;54.51
36242;BME280;22283;42.748;12.732;2023-05-02T11:48:02;97385.88;;;21.41;55.53
36242;BME280;22283;42.748;12.732;2023-05-02T11:53:09;97378.16;;;21.73;54.82
36242;BME280;22283;42.748;12.732;2023-05-02T11:58:15;97376.72;;;21.77;56.11
36242;BME280;22283;42.748;12.732;2023-05-02T12:03:29;97381.00;;;21.51;55.49
36242;BME280;22283;42.748;12.732;2023-05-02T12:08:30;97394.28;;;21.59;55.65
36242;BME280;22283;42.748;12.732;2023-05-02T12:13:31;97375.81;;;21.22;55.34
36242;BME280;22283;42.748;12.732;2023-05-02T12:18:32;97373.50;;;21.47;55.75
36242;BME280;22283;42.748;12.732;2023-05-02T12:23:32;97379.84;;;21.74;53.37
36242;BME280;22283;42.748;12.732;2023-05-02T12:28:35;97387.94;;;21.74;54.57
36242;BME280;22283;42.748;12.732;2023-05-02T12:33:47;97377.31;;;21.66;54.46
36242;BME280;22283;42.748;12.732;2023-05-02T12:38:50;97384.47;;;21.45;54.82
36242;BME280;22283;42.748;12.732;2023-05-02T12:43:52;97377.66;;;21.49;55.94
36242;BME280;22283;42.748;12.732;2023-05-02T12:49:04;97382.78;;;21.09;57.21
36242;BME280;22283;42.748;12.732;2023-05-02T12:54:05;97369.94;;;20.77;57.79
36242;BME280;22283;42.748;12.732;2023-05-02T12:59:06;97382.25;;;20.65;57.86
36242;BME280;22283;42.748;12.732;2023-05-02T13:04:07;97371.72;;;20.70;58.29
36242;BME280;22283;42.748;12.732;2023-05-02T13:09:08;97374.09;;;21.14;56.56
36242;BME280;22283;42.748;12.732;2023-05-02T13:14:08;97379.84;;;21.32;56.72
36242;BME280;22283;42.748;12.732;2023-05-02T13:19:11;97387.56;;;21.42;58.21
36242;BME280;22283;42.748;12.732;2023-05-02T13:24:11;97375.13;;;21.41;56.42
36242;BME280;22283;42.748;12.732;2023-05-02T13:29:13;97367.00;;;21.00;56.90
36242;BME280;22283;42.748;12.732;2023-05-02T13:34:13;97378.59;;;21.00;56.63
36242;BME280;22283;42.748;12.732;2023-05-02T13:39:14;97374.31;;;21.12;57.21
36242;BME280;22283;42.748;12.732;2023-05-02T13:44:15;97368.72;;;21.07;56.57
36242;BME280;22283;42.748;12.732;2023-05-02T13:49:16;97366.28;;;21.19;57.97
36242;BME280;22283;42.748;12.732;2023-05-02T13:54:16;97368.75;;;21.49;57.44
36242;BME280;22283;42.748;12.732;2023-05-02T13:59:17;97361.75;;;21.54;56.60
36242;BME280;22283;42.748;12.732;2023-05-02T14:04:18;97352.81;;;21.47;56.55
36242;BME280;22283;42.748;12.732;2023-05-02T14:09:18;97376.44;;;21.52;56.26
36242;BME280;22283;42.748;12.732;2023-05-02T14:14:20;97368.00;;;21.27;55.59
36242;BME280;22283;42.748;12.732;2023-05-02T14:19:20;97374.25;;;20.99;55.83
36242;BME280;22283;42.748;12.732;2023-05-02T14:24:21;97381.06;;;21.02;55.78
36242;BME280;22283;42.748;12.732;2023-05-02T14:29:22;97389.69;;;21.19;56.38
36242;BME280;22283;42.748;12.732;2023-05-02T14:34:22;97390.53;;;21.26;55.09
36242;BME280;22283;42.748;12.732;2023-05-02T14:39:26;97385.22;;;21.04;54.76
36242;BME280;22283;42.748;12.732;2023-05-02T14:44:26;97385.16;;;20.98;55.15
36242;BME280;22283;42.748;12.732;2023-05-02T14:49:27;97382.16;;;21.07;53.68
36242;BME280;22283;42.748;12.732;2023-05-02T14:54:28;97401.44;;;21.18;53.62
36242;BME280;22283;42.748;12.732;2023-05-02T14:59:30;97401.06;;;21.21;55.39
36242;BME280;22283;42.748;12.732;2023-05-02T15:04:30;97400.78;;;21.37;55.31
36242;BME280;22283;42.748;12.732;2023-05-02T15:09:31;97390.53;;;21.26;58.03
36242;BME280;22283;42.748;12.732;2023-05-02T15:14:31;97390.09;;;20.94;56.23
36242;BME280;22283;42.748;12.732;2023-05-02T15:19:32;97400.16;;;20.79;57.25
36242;BME280;22283;42.748;12.732;2023-05-02T15:24:32;97409.03;;;20.36;59.25
36242;BME280;22283;42.748;12.732;2023-05-02T15:29:33;97410.94;;;19.85;63.46
36242;BME280;22283;42.748;12.732;2023-05-02T15:34:34;97407.25;;;19.41;66.77
36242;BME280;22283;42.748;12.732;2023-05-02T15:39:34;97419.97;;;18.95;70.35
36242;BME280;22283;42.748;12.732;2023-05-02T15:44:35;97430.00;;;18.55;80.02
36242;BME280;22283;42.748;12.732;2023-05-02T15:49:36;97430.94;;;18.16;94.70
36242;BME280;22283;42.748;12.732;2023-05-02T15:54:37;97438.94;;;18.02;95.36
36242;BME280;22283;42.748;12.732;2023-05-02T15:59:38;97459.94;;;17.82;98.69
36242;BME280;22283;42.748;12.732;2023-05-02T16:04:39;97457.66;;;17.54;100.00
36242;BME280;22283;42.748;12.732;2023-05-02T16:09:39;97466.72;;;17.37;100.00
36242;BME280;22283;42.748;12.732;2023-05-02T16:14:41;97463.44;;;17.18;100.00
36242;BME280;22283;42.748;12.732;2023-05-02T16:19:42;97455.09;;;16.97;100.00
36242;BME280;22283;42.748;12.732;2023-05-02T16:24:43;97459.13;;;16.85;100.00
36242;BME280;22283;42.748;12.732;2023-05-02T16:29:43;97442.78;;;16.80;100.00
36242;BME280;22283;42.748;12.732;2023-05-02T16:34:44;97459.63;;;16.80;100.00
36242;BME280;22283;42.748;12.732;2023-05-02T16:39:45;97461.47;;;16.88;100.00
36242;BME280;22283;42.748;12.732;2023-05-02T16:44:45;97468.81;;;16.78;100.00
36242;BME280;22283;42.748;12.732;2023-05-02T16:49:51;97475.81;;;16.79;100.00
36242;BME280;22283;42.748;12.732;2023-05-02T16:54:52;97485.19;;;16.83;100.00
36242;BME280;22283;42.748;12.732;2023-05-02T16:59:53;97473.81;;;16.89;100.00
36242;BME280;22283;42.748;12.732;2023-05-02T17:04:53;97480.31;;;16.86;100.00
36242;BME280;22283;42.748;12.732;2023-05-02T17:09:55;97485.34;;;16.81;99.21
36242;BME280;22283;42.748;12.732;2023-05-02T17:14:55;97496.53;;;16.77;100.00
36242;BME280;22283;42.748;12.732;2023-05-02T17:19:56;97512.69;;;16.67;100.00
36242;BME280;22283;42.748;12.732;2023-05-02T17:24:57;97507.81;;;16.54;100.00
36242;BME280;22283;42.748;12.732;2023-05-02T17:29:58;97517.81;;;16.44;100.00
36242;BME280;22283;42.748;12.732;2023-05-02T17:34:58;97516.94;;;16.27;100.00
36242;BME280;22283;42.748;12.732;2023-05-02T17:39:59;97534.13;;;16.25;100.00
36242;BME280;22283;42.748;12.732;2023-05-02T17:45:01;97541.44;;;16.22;100.00
36242;BME280;22283;42.748;12.732;2023-05-02T17:50:02;97535.75;;;16.09;100.00
36242;BME280;22283;42.748;12.732;2023-05-02T17:55:04;97543.03;;;15.99;100.00
36242;BME280;22283;42.748;12.732;2023-05-02T18:00:06;97553.03;;;15.97;100.00
36242;BME280;22283;42.748;12.732;2023-05-02T18:05:08;97552.00;;;15.90;100.00
36242;BME280;22283;42.748;12.732;2023-05-02T18:10:10;97560.97;;;15.81;100.00
36242;BME280;22283;42.748;12.732;2023-05-02T18:15:10;97563.41;;;15.74;100.00
36242;BME280;22283;42.748;12.732;2023-05-02T18:20:11;97557.03;;;15.67;100.00
36242;BME280;22283;42.748;12.732;2023-05-02T18:25:13;97573.13;;;15.57;100.00
36242;BME280;22283;42.748;12.732;2023-05-02T18:30:14;97580.69;;;15.44;100.00
36242;BME280;22283;42.748;12.732;2023-05-02T18:35:14;97592.28;;;15.35;100.00
36242;BME280;22283;42.748;12.732;2023-05-02T18:40:15;97593.06;;;15.27;100.00
36242;BME280;22283;42.748;12.732;2023-05-02T18:45:16;97608.16;;;15.18;100.00
36242;BME280;22283;42.748;12.732;2023-05-02T18:50:16;97598.38;;;15.01;100.00
36242;BME280;22283;42.748;12.732;2023-05-02T18:55:18;97623.31;;;15.00;100.00
36242;BME280;22283;42.748;12.732;2023-05-02T19:00:18;97622.09;;;14.94;100.00
36242;BME280;22283;42.748;12.732;2023-05-02T19:05:19;97622.25;;;14.93;100.00
36242;BME280;22283;42.748;12.732;2023-05-02T19:10:20;97637.16;;;14.86;100.00
36242;BME280;22283;42.748;12.732;2023-05-02T19:15:21;97656.78;;;14.85;100.00
36242;BME280;22283;42.748;12.732;2023-05-02T19:20:26;97661.44;;;14.83;100.00
36242;BME280;22283;42.748;12.732;2023-05-02T19:25:28;97673.91;;;14.82;100.00
36242;BME280;22283;42.748;12.732;2023-05-02T19:30:29;97674.59;;;14.84;100.00
36242;BME280;22283;42.748;12.732;2023-05-02T19:35:29;97678.53;;;14.80;100.00
36242;BME280;22283;42.748;12.732;2023-05-02T19:40:34;97684.31;;;14.75;100.00
36242;BME280;22283;42.748;12.732;2023-05-02T19:45:35;97690.53;;;14.66;100.00
36242;BME280;22283;42.748;12.732;2023-05-02T19:50:35;97702.75;;;14.59;100.00
36242;BME280;22283;42.748;12.732;2023-05-02T19:55:37;97706.25;;;14.60;100.00
36242;BME280;22283;42.748;12.732;2023-05-02T20:00:37;97710.47;;;14.62;100.00
36242;BME280;22283;42.748;12.732;2023-05-02T20:05:40;97722.22;;;14.69;100.00
36242;BME280;22283;42.748;12.732;2023-05-02T20:10:41;97722.59;;;14.74;100.00
36242;BME280;22283;42.748;12.732;2023-05-02T20:15:42;97727.91;;;14.74;100.00
36242;BME280;22283;42.748;12.732;2023-05-02T20:20:43;97727.91;;;14.74;100.00
36242;BME280;22283;42.748;12.732;2023-05-02T20:25:44;97731.25;;;14.76;100.00
36242;BME280;22283;42.748;12.732;2023-05-02T20:30:45;97726.44;;;14.62;100.00
36242;BME280;22283;42.748;12.732;2023-05-02T20:35:52;97740.44;;;14.64;100.00
36242;BME280;22283;42.748;12.732;2023-05-02T20:40:54;97745.91;;;14.63;100.00
36242;BME280;22283;42.748;12.732;2023-05-02T20:45:54;97744.69;;;14.57;100.00
36242;BME280;22283;42.748;12.732;2023-05-02T20:50:55;97739.38;;;14.57;100.00
36242;BME280;22283;42.748;12.732;2023-05-02T20:55:56;97739.38;;;14.57;100.00
36242;BME280;22283;42.748;12.732;2023-05-02T21:00:57;97733.28;;;14.65;100.00
36242;BME280;22283;42.748;12.732;2023-05-02T21:05:58;97728.72;;;14.57;100.00
36242;BME280;22283;42.748;12.732;2023-05-02T21:10:58;97739.38;;;14.57;100.00
36242;BME280;22283;42.748;12.732;2023-05-02T21:16:00;97732.94;;;14.50;100.00
36242;BME280;22283;42.748;12.732;2023-05-02T21:21:01;97725.13;;;14.29;100.00
36242;BME280;22283;42.748;12.732;2023-05-02T21:26:01;97737.47;;;14.20;100.00
36242;BME280;22283;42.748;12.732;2023-05-02T21:31:03;97738.34;;;14.11;100.00
36242;BME280;22283;42.748;12.732;2023-05-02T21:36:03;97740.91;;;13.93;100.00
36242;BME280;22283;42.748;12.732;2023-05-02T21:41:04;97740.66;;;13.87;100.00
36242;BME280;22283;42.748;12.732;2023-05-02T21:46:05;97743.19;;;13.78;100.00
36242;BME280;22283;42.748;12.732;2023-05-02T21:51:10;97742.75;;;13.73;100.00
36242;BME280;22283;42.748;12.732;2023-05-02T21:56:10;97753.94;;;13.67;100.00
36242;BME280;22283;42.748;12.732;2023-05-02T22:01:11;97747.38;;;13.71;100.00
36242;BME280;22283;42.748;12.732;2023-05-02T22:06:12;97756.88;;;13.64;100.00
36242;BME280;22283;42.748;12.732;2023-05-02T22:11:12;97746.81;;;13.48;100.00
36242;BME280;22283;42.748;12.732;2023-05-02T22:16:14;97758.72;;;13.35;100.00
36242;BME280;22283;42.748;12.732;2023-05-02T22:21:15;97770.78;;;13.18;100.00
36242;BME280;22283;42.748;12.732;2023-05-02T22:26:18;97773.97;;;13.02;100.00
36242;BME280;22283;42.748;12.732;2023-05-02T22:31:18;97775.63;;;12.84;100.00
36242;BME280;22283;42.748;12.732;2023-05-02T22:36:19;97768.19;;;12.77;100.00
36242;BME280;22283;42.748;12.732;2023-05-02T22:41:20;97777.44;;;12.83;100.00
36242;BME280;22283;42.748;12.732;2023-05-02T22:46:20;97781.56;;;12.66;100.00
36242;BME280;22283;42.748;12.732;2023-05-02T22:51:22;97774.47;;;12.46;100.00
36242;BME280;22283;42.748;12.732;2023-05-02T22:56:23;97783.50;;;12.34;100.00
36242;BME280;22283;42.748;12.732;2023-05-02T23:01:24;97788.63;;;12.25;100.00
36242;BME280;22283;42.748;12.732;2023-05-02T23:06:24;97790.84;;;12.20;100.00
36242;BME280;22283;42.748;12.732;2023-05-02T23:11:28;97779.38;;;12.20;100.00
36242;BME280;22283;42.748;12.732;2023-05-02T23:16:28;97788.00;;;12.12;100.00
36242;BME280;22283;42.748;12.732;2023-05-02T23:21:29;97789.72;;;12.02;100.00
36242;BME280;22283;42.748;12.732;2023-05-02T23:26:30;97781.59;;;11.94;100.00
36242;BME280;22283;42.748;12.732;2023-05-02T23:31:30;97783.47;;;11.71;100.00
36242;BME280;22283;42.748;12.732;2023-05-02T23:36:31;97775.13;;;11.75;100.00
36242;BME280;22283;42.748;12.732;2023-05-02T23:41:33;97774.31;;;11.75;100.00
36242;BME280;22283;42.748;12.732;2023-05-02T23:46:34;97779.00;;;11.71;100.00
36242;BME280;22283;42.748;12.732;2023-05-02T23:51:35;97769.59;;;11.78;100.00
36242;BME280;22283;42.748;12.732;2023-05-02T23:56:36;97767.91;;;11.77;100.00
